Time;durP1;ratioP1;P1;durP2;ratioP2;P2;SDS_P1;SDS_P2;PMS_P1;PMS_P2;Temp;Humidity;BMP_temperature;BMP_pressure;BME280_temperature;BME280_humidity;BME280_pressure;Samples;Min_cycle;Max_cycle;Signal;HPM_P1;HPM_P2
2020/12/07 00:00:10;;;;;;;1.70;0.70;;;3.10;99.90;;;;;;5074314;28;20474;-53
2020/12/07 00:02:37;;;;;;;1.50;0.70;;;3.10;99.90;;;;;;5073804;28;20428;-50
2020/12/07 00:05:04;;;;;;;1.40;0.70;;;3.00;99.90;;;;;;5073661;28;20423;-50
2020/12/07 00:07:31;;;;;;;1.00;0.60;;;3.00;99.90;;;;;;5072723;28;20510;-48
2020/12/07 00:10:01;;;;;;;1.10;0.70;;;2.90;99.90;;;;;;5073430;28;20858;-51
2020/12/07 00:12:29;;;;;;;1.30;0.80;;;3.00;99.90;;;;;;5073082;28;20506;-52
2020/12/07 00:14:55;;;;;;;1.40;0.63;;;2.90;99.90;;;;;;5072207;28;20420;-48
2020/12/07 00:17:22;;;;;;;1.00;0.63;;;2.90;99.90;;;;;;5073430;28;20416;-52
2020/12/07 00:19:49;;;;;;;0.80;0.50;;;2.90;99.90;;;;;;5074018;28;20454;-52
2020/12/07 00:22:21;;;;;;;0.90;0.50;;;2.90;99.90;;;;;;5074472;28;20423;-50
2020/12/07 00:24:48;;;;;;;0.90;0.60;;;3.00;99.90;;;;;;5074090;28;20439;-50
2020/12/07 00:27:20;;;;;;;1.40;0.50;;;3.10;99.90;;;;;;5074650;28;20904;-48
2020/12/07 00:29:47;;;;;;;0.73;0.40;;;3.10;99.90;;;;;;5074428;28;20423;-50
2020/12/07 00:32:13;;;;;;;0.80;0.50;;;3.10;99.90;;;;;;5074344;28;20416;-52
2020/12/07 00:34:40;;;;;;;1.05;0.50;;;3.20;99.90;;;;;;5074295;28;20419;-52
2020/12/07 00:37:08;;;;;;;1.02;0.50;;;3.20;99.90;;;;;;5074076;28;20423;-51
2020/12/07 00:39:34;;;;;;;1.00;0.50;;;3.30;99.90;;;;;;5074200;28;20869;-50
2020/12/07 00:42:02;;;;;;;1.40;0.50;;;3.30;99.90;;;;;;5074596;28;20461;-47
2020/12/07 00:44:29;;;;;;;1.08;0.60;;;3.30;99.90;;;;;;5074265;28;20855;-49
2020/12/07 00:46:55;;;;;;;1.60;0.50;;;3.30;99.90;;;;;;5074663;28;20416;-50
2020/12/07 00:49:21;;;;;;;1.00;0.50;;;3.30;99.90;;;;;;5074394;28;20796;-52
2020/12/07 00:51:48;;;;;;;1.10;0.50;;;3.30;99.90;;;;;;5074182;28;20416;-48
2020/12/07 00:54:15;;;;;;;0.80;0.43;;;3.20;99.90;;;;;;5074316;28;20423;-49
2020/12/07 00:56:41;;;;;;;0.80;0.50;;;3.20;99.90;;;;;;5074181;28;20419;-50
2020/12/07 00:59:09;;;;;;;0.80;0.50;;;3.20;99.90;;;;;;5074152;28;20459;-50
2020/12/07 01:01:36;;;;;;;0.90;0.50;;;3.30;99.90;;;;;;5074980;28;20412;-47
2020/12/07 01:04:03;;;;;;;0.80;0.50;;;3.40;99.90;;;;;;5074176;28;20439;-47
2020/12/07 01:06:30;;;;;;;0.90;0.52;;;3.40;99.90;;;;;;5073345;28;20420;-48
2020/12/07 01:08:57;;;;;;;1.30;0.50;;;3.30;99.90;;;;;;5071818;28;20416;-50
2020/12/07 01:11:23;;;;;;;0.97;0.40;;;3.20;99.90;;;;;;5074296;28;20415;-52
2020/12/07 01:13:50;;;;;;;0.80;0.50;;;3.10;99.90;;;;;;5073723;28;20477;-50
2020/12/07 01:16:20;;;;;;;0.90;0.40;;;3.10;99.90;;;;;;5074267;28;20546;-51
2020/12/07 01:18:47;;;;;;;0.90;0.50;;;3.10;99.90;;;;;;5073615;28;20411;-50
2020/12/07 01:21:15;;;;;;;1.00;0.50;;;3.10;99.90;;;;;;5073846;28;20510;-51
2020/12/07 01:23:42;;;;;;;0.80;0.40;;;3.00;99.90;;;;;;5074134;28;20461;-49
2020/12/07 01:26:09;;;;;;;0.80;0.40;;;3.10;99.90;;;;;;5075212;28;20505;-51
2020/12/07 01:28:35;;;;;;;0.68;0.40;;;3.00;99.90;;;;;;5077575;28;20419;-47
2020/12/07 01:31:02;;;;;;;0.70;0.40;;;3.00;99.90;;;;;;5078488;28;20427;-48
2020/12/07 01:33:29;;;;;;;0.65;0.40;;;3.00;99.90;;;;;;5077878;28;20769;-50
2020/12/07 01:35:56;;;;;;;0.95;0.50;;;3.00;99.90;;;;;;5077728;28;20423;-51
2020/12/07 01:38:23;;;;;;;0.50;0.30;;;2.90;99.90;;;;;;5077284;28;20480;-49
2020/12/07 01:40:49;;;;;;;0.73;0.40;;;2.90;99.90;;;;;;5076827;28;20731;-52
2020/12/07 01:43:17;;;;;;;0.80;0.47;;;2.90;99.90;;;;;;5077679;28;20712;-49
2020/12/07 01:45:44;;;;;;;0.90;0.50;;;2.90;99.90;;;;;;5077052;28;20423;-50
2020/12/07 01:48:10;;;;;;;0.70;0.43;;;2.90;99.90;;;;;;5077314;28;20415;-51
2020/12/07 01:50:39;;;;;;;0.80;0.50;;;2.90;99.90;;;;;;5077612;28;20788;-52
2020/12/07 01:53:07;;;;;;;0.90;0.40;;;2.90;99.90;;;;;;5076508;28;20458;-48
2020/12/07 01:55:33;;;;;;;0.80;0.40;;;2.90;99.90;;;;;;5077371;28;20524;-52
2020/12/07 01:58:00;;;;;;;0.60;0.40;;;2.90;99.90;;;;;;5077536;28;20465;-49
2020/12/07 02:00:26;;;;;;;0.70;0.40;;;2.90;99.90;;;;;;5077390;28;20419;-49
2020/12/07 02:02:53;;;;;;;0.73;0.50;;;2.90;99.90;;;;;;5077249;28;20415;-49
2020/12/07 02:05:19;;;;;;;0.90;0.50;;;2.90;99.90;;;;;;5077893;28;20844;-49
2020/12/07 02:07:46;;;;;;;0.90;0.40;;;2.90;99.90;;;;;;5076386;28;20760;-50
2020/12/07 02:10:13;;;;;;;0.80;0.50;;;2.90;99.90;;;;;;5075707;28;20839;-49
2020/12/07 02:12:39;;;;;;;1.05;0.70;;;2.90;99.90;;;;;;5075443;28;20750;-47
2020/12/07 02:15:06;;;;;;;0.80;0.50;;;2.90;99.90;;;;;;5075993;28;20442;-47
2020/12/07 02:17:32;;;;;;;1.20;0.60;;;3.00;99.90;;;;;;5076121;28;20822;-48
2020/12/07 02:19:59;;;;;;;1.10;0.60;;;2.90;99.90;;;;;;5074815;28;20806;-51
2020/12/07 02:22:26;;;;;;;0.95;0.60;;;3.00;99.90;;;;;;5074274;28;20465;-52
2020/12/07 02:24:52;;;;;;;1.00;0.60;;;3.00;99.90;;;;;;5074309;28;20526;-52
2020/12/07 02:27:19;;;;;;;1.00;0.70;;;3.00;99.90;;;;;;5074306;28;20423;-48
2020/12/07 02:29:46;;;;;;;1.23;0.60;;;2.90;99.90;;;;;;5073740;28;20661;-51
2020/12/07 02:32:14;;;;;;;0.97;0.50;;;2.90;99.90;;;;;;5073838;28;20442;-50
2020/12/07 02:34:42;;;;;;;1.10;0.60;;;3.00;99.90;;;;;;5074768;28;20435;-54
2020/12/07 02:37:10;;;;;;;0.80;0.50;;;3.00;99.90;;;;;;5076379;28;20851;-53
2020/12/07 02:39:37;;;;;;;1.00;0.52;;;3.00;99.90;;;;;;5075773;28;20547;-56
2020/12/07 02:42:04;;;;;;;1.23;0.57;;;3.00;99.90;;;;;;5076307;28;20465;-52
2020/12/07 02:44:30;;;;;;;0.80;0.50;;;3.10;99.90;;;;;;5076892;28;20443;-50
2020/12/07 02:46:58;;;;;;;0.90;0.50;;;3.10;99.90;;;;;;5076483;28;20501;-50
2020/12/07 02:49:24;;;;;;;0.80;0.50;;;3.00;99.90;;;;;;5076440;28;20434;-48
2020/12/07 02:51:51;;;;;;;0.98;0.50;;;3.10;99.90;;;;;;5076415;28;20839;-52
2020/12/07 02:54:18;;;;;;;0.77;0.40;;;3.20;99.90;;;;;;5076382;28;20415;-50
2020/12/07 02:56:45;;;;;;;0.70;0.43;;;3.20;99.90;;;;;;5076352;28;20455;-49
2020/12/07 02:59:11;;;;;;;0.90;0.57;;;3.20;99.90;;;;;;5075813;28;20423;-49
2020/12/07 03:01:38;;;;;;;0.60;0.40;;;3.20;99.90;;;;;;5076173;28;20440;-51
2020/12/07 03:04:04;;;;;;;1.00;0.50;;;3.20;99.90;;;;;;5076073;28;20432;-52
2020/12/07 03:06:31;;;;;;;0.90;0.60;;;3.20;99.90;;;;;;5076425;28;20819;-52
2020/12/07 03:08:57;;;;;;;0.82;0.60;;;3.10;99.90;;;;;;5075959;28;20473;-53
2020/12/07 03:11:25;;;;;;;0.88;0.40;;;3.10;99.90;;;;;;5076358;28;20455;-51
2020/12/07 03:13:51;;;;;;;0.88;0.45;;;3.10;99.90;;;;;;5076167;28;20517;-48
2020/12/07 03:16:18;;;;;;;1.00;0.50;;;3.00;99.90;;;;;;5076168;28;20874;-51
2020/12/07 03:18:44;;;;;;;0.70;0.40;;;3.00;99.90;;;;;;5075546;28;20416;-50
2020/12/07 03:21:11;;;;;;;0.80;0.50;;;3.10;99.90;;;;;;5075739;28;20473;-50
2020/12/07 03:23:37;;;;;;;0.90;0.50;;;3.10;99.90;;;;;;5075299;28;20496;-50
2020/12/07 03:26:04;;;;;;;0.90;0.50;;;3.20;99.90;;;;;;5074871;28;20466;-48
2020/12/07 03:28:31;;;;;;;0.70;0.40;;;3.10;99.90;;;;;;5074614;28;20492;-50
2020/12/07 03:30:58;;;;;;;0.82;0.50;;;3.10;99.90;;;;;;5075259;28;20431;-53
2020/12/07 03:33:24;;;;;;;0.90;0.50;;;3.10;99.90;;;;;;5075242;28;20474;-52
2020/12/07 03:35:50;;;;;;;0.85;0.50;;;3.10;99.90;;;;;;5075115;28;20423;-52
2020/12/07 03:38:17;;;;;;;0.60;0.40;;;3.20;99.90;;;;;;5074904;28;20481;-51
2020/12/07 03:40:44;;;;;;;0.70;0.40;;;3.20;99.90;;;;;;5075369;28;20785;-51
2020/12/07 03:43:10;;;;;;;1.00;0.40;;;3.30;99.90;;;;;;5075669;28;20416;-52
2020/12/07 03:45:37;;;;;;;0.70;0.40;;;3.30;99.90;;;;;;5075531;28;20423;-51
2020/12/07 03:48:04;;;;;;;0.70;0.50;;;3.20;99.90;;;;;;5075233;28;20447;-50
2020/12/07 03:50:30;;;;;;;0.70;0.50;;;3.10;99.90;;;;;;5075209;28;20424;-50
2020/12/07 03:52:57;;;;;;;0.90;0.50;;;3.00;99.90;;;;;;5075387;28;20865;-51
2020/12/07 03:55:23;;;;;;;0.70;0.50;;;3.00;99.90;;;;;;5075247;28;20423;-52
2020/12/07 03:57:49;;;;;;;0.70;0.40;;;3.10;99.90;;;;;;5074704;28;20466;-52
2020/12/07 04:00:16;;;;;;;1.80;0.40;;;3.10;99.90;;;;;;5075178;28;20877;-52
2020/12/07 04:02:44;;;;;;;0.80;0.40;;;3.10;99.90;;;;;;5075111;28;20412;-52
2020/12/07 04:05:17;;;;;;;1.08;0.40;;;3.20;99.90;;;;;;5075356;28;20791;-51
2020/12/07 04:07:43;;;;;;;2.10;0.40;;;3.20;99.90;;;;;;5074183;28;20419;-50
2020/12/07 04:10:10;;;;;;;1.00;0.40;;;3.10;99.90;;;;;;5074307;28;20908;-52
2020/12/07 04:12:36;;;;;;;0.90;0.40;;;3.10;99.90;;;;;;5074545;28;20461;-54
2020/12/07 04:15:03;;;;;;;1.60;0.50;;;3.10;99.90;;;;;;5074508;28;20735;-50
2020/12/07 04:17:29;;;;;;;0.77;0.50;;;3.00;99.90;;;;;;5074111;28;20473;-49
2020/12/07 04:19:57;;;;;;;0.80;0.50;;;3.00;99.90;;;;;;5074109;28;20431;-53
2020/12/07 04:22:23;;;;;;;0.80;0.47;;;3.10;99.90;;;;;;5073429;28;20424;-51
2020/12/07 04:24:50;;;;;;;0.60;0.40;;;3.10;99.90;;;;;;5073380;28;20432;-52
2020/12/07 04:27:16;;;;;;;0.82;0.40;;;3.00;99.90;;;;;;5072614;28;20778;-52
2020/12/07 04:29:43;;;;;;;0.80;0.47;;;3.00;99.90;;;;;;5073156;28;20498;-53
2020/12/07 04:32:09;;;;;;;1.10;0.40;;;3.00;99.90;;;;;;5073371;28;20476;-53
2020/12/07 04:34:35;;;;;;;0.80;0.40;;;3.00;99.90;;;;;;5073657;28;20766;-53
2020/12/07 04:37:03;;;;;;;0.80;0.40;;;3.10;99.90;;;;;;5074093;28;20676;-51
2020/12/07 04:39:29;;;;;;;0.70;0.40;;;3.20;99.90;;;;;;5074642;28;20427;-54
2020/12/07 04:41:57;;;;;;;1.10;0.40;;;3.20;99.90;;;;;;5074477;28;20778;-52
2020/12/07 04:44:24;;;;;;;0.80;0.40;;;3.20;99.90;;;;;;5073921;28;20785;-49
2020/12/07 04:46:51;;;;;;;0.60;0.40;;;3.20;99.90;;;;;;5074524;28;20419;-51
2020/12/07 04:49:20;;;;;;;1.30;0.50;;;3.20;99.90;;;;;;5074577;28;20493;-50
2020/12/07 04:51:49;;;;;;;0.70;0.30;;;3.20;99.90;;;;;;5074259;28;20412;-50
2020/12/07 04:54:16;;;;;;;0.70;0.40;;;3.30;99.90;;;;;;5073566;28;20451;-54
2020/12/07 04:56:44;;;;;;;0.70;0.40;;;3.40;99.90;;;;;;5074099;28;20424;-52
2020/12/07 04:59:10;;;;;;;0.90;0.40;;;3.50;99.90;;;;;;5074234;28;20699;-48
2020/12/07 05:01:37;;;;;;;0.70;0.40;;;3.50;99.90;;;;;;5073854;28;20416;-50
2020/12/07 05:04:04;;;;;;;0.60;0.40;;;3.50;99.90;;;;;;5074269;28;20508;-52
2020/12/07 05:06:31;;;;;;;0.95;0.50;;;3.50;99.90;;;;;;5074569;28;20510;-51
2020/12/07 05:08:58;;;;;;;0.70;0.40;;;3.50;99.90;;;;;;5074541;28;20714;-52
2020/12/07 05:11:27;;;;;;;0.70;0.40;;;3.60;99.90;;;;;;5074288;28;20426;-50
2020/12/07 05:13:58;;;;;;;0.90;0.40;;;3.60;99.90;;;;;;5073631;28;20419;-48
2020/12/07 05:16:25;;;;;;;0.60;0.40;;;3.60;99.90;;;;;;5073638;28;20419;-50
2020/12/07 05:18:52;;;;;;;0.70;0.40;;;3.50;99.90;;;;;;5073362;28;20420;-49
2020/12/07 05:21:19;;;;;;;1.10;0.50;;;3.50;99.90;;;;;;5073715;28;20416;-52
2020/12/07 05:23:51;;;;;;;0.80;0.50;;;3.50;99.90;;;;;;5073505;28;20435;-53
2020/12/07 05:26:19;;;;;;;0.70;0.40;;;3.50;99.90;;;;;;5073335;28;20420;-53
2020/12/07 05:28:50;;;;;;;0.70;0.40;;;3.50;99.90;;;;;;5072406;28;20781;-51
2020/12/07 05:31:18;;;;;;;0.90;0.50;;;3.50;99.90;;;;;;5074199;28;20442;-53
2020/12/07 05:33:46;;;;;;;0.80;0.40;;;3.50;99.90;;;;;;5072223;28;20830;-50
2020/12/07 05:36:12;;;;;;;0.75;0.47;;;3.50;99.90;;;;;;5070197;28;20527;-50
2020/12/07 05:38:39;;;;;;;1.15;0.52;;;3.60;99.90;;;;;;5071644;28;20450;-49
2020/12/07 05:41:06;;;;;;;1.40;0.50;;;3.60;99.90;;;;;;5072134;28;20837;-52
2020/12/07 05:43:33;;;;;;;0.90;0.50;;;3.60;99.90;;;;;;5071272;28;20470;-50
2020/12/07 05:46:01;;;;;;;0.70;0.40;;;3.60;99.90;;;;;;5071811;28;20424;-53
2020/12/07 05:48:30;;;;;;;0.73;0.50;;;3.50;99.90;;;;;;5072836;28;20416;-54
2020/12/07 05:51:01;;;;;;;0.80;0.50;;;3.50;99.90;;;;;;5074009;28;20668;-47
2020/12/07 05:53:27;;;;;;;1.20;0.60;;;3.40;99.90;;;;;;5073564;28;20530;-51
2020/12/07 05:55:55;;;;;;;2.30;0.50;;;3.40;99.90;;;;;;5073358;28;20423;-50
2020/12/07 05:58:22;;;;;;;0.90;0.50;;;3.40;99.90;;;;;;5073899;28;20462;-48
2020/12/07 06:00:52;;;;;;;0.98;0.55;;;3.40;99.90;;;;;;5072989;28;20435;-48
2020/12/07 06:03:20;;;;;;;0.90;0.60;;;3.40;99.90;;;;;;5073079;28;20415;-53
2020/12/07 06:05:46;;;;;;;0.82;0.50;;;3.40;99.90;;;;;;5072993;28;20463;-49
2020/12/07 06:08:16;;;;;;;1.20;0.60;;;3.30;99.90;;;;;;5072156;28;20455;-51
2020/12/07 06:10:46;;;;;;;0.90;0.60;;;3.30;99.90;;;;;;5084429;28;20457;-50
2020/12/07 06:13:17;;;;;;;1.80;0.60;;;3.20;99.90;;;;;;5093253;28;20516;-51
2020/12/07 06:15:47;;;;;;;1.00;0.60;;;3.20;99.90;;;;;;5096674;28;20446;-52
2020/12/07 06:18:29;;;;;;;1.10;0.60;;;3.10;99.90;;;;;;5095903;28;20414;-53
2020/12/07 06:20:56;;;;;;;0.98;0.57;;;3.10;99.90;;;;;;5089854;28;20484;-55
2020/12/07 06:23:35;;;;;;;1.40;0.60;;;3.10;99.90;;;;;;5059609;28;20425;-49
2020/12/07 06:26:03;;;;;;;1.25;0.63;;;3.10;99.90;;;;;;5054459;28;20425;-50
2020/12/07 06:28:34;;;;;;;1.10;0.70;;;3.20;99.90;;;;;;5054237;28;20771;-53
2020/12/07 06:31:04;;;;;;;1.27;0.60;;;3.10;99.90;;;;;;5054749;28;20502;-49
2020/12/07 06:33:38;;;;;;;1.67;0.60;;;3.10;99.90;;;;;;5053097;28;20500;-50
2020/12/07 06:36:04;;;;;;;1.50;0.70;;;3.10;99.90;;;;;;5055356;28;20429;-51
2020/12/07 06:38:40;;;;;;;1.40;0.60;;;3.10;99.90;;;;;;5055828;28;20429;-52
2020/12/07 06:41:07;;;;;;;2.47;0.80;;;3.10;99.90;;;;;;5055985;28;20471;-50
2020/12/07 06:43:34;;;;;;;1.25;0.60;;;3.10;99.90;;;;;;5067330;28;20424;-52
2020/12/07 06:46:00;;;;;;;1.50;0.60;;;3.10;99.90;;;;;;5074422;28;20443;-50
2020/12/07 06:48:28;;;;;;;1.10;0.60;;;3.10;99.90;;;;;;5073821;28;20903;-51
2020/12/07 06:50:57;;;;;;;1.00;0.70;;;3.10;99.90;;;;;;5079043;28;20431;-52
2020/12/07 06:53:42;;;;;;;1.30;0.70;;;3.10;99.90;;;;;;5074038;28;20517;-49
2020/12/07 06:56:09;;;;;;;1.20;0.70;;;3.10;99.90;;;;;;5076750;28;20903;-48
2020/12/07 06:58:37;;;;;;;1.05;0.63;;;3.10;99.90;;;;;;5077526;28;20430;-50
2020/12/07 07:01:12;;;;;;;1.70;0.70;;;3.30;99.90;;;;;;5083764;28;20746;-52
2020/12/07 07:03:52;;;;;;;2.40;0.80;;;3.40;99.90;;;;;;5076921;28;20842;-49
2020/12/07 07:06:21;;;;;;;1.20;0.70;;;3.40;99.90;;;;;;5080141;28;20427;-50
2020/12/07 07:08:48;;;;;;;1.25;0.70;;;3.50;99.90;;;;;;5077716;28;20427;-48
2020/12/07 07:11:15;;;;;;;1.40;0.70;;;3.50;99.90;;;;;;5073971;28;20469;-49
2020/12/07 07:13:47;;;;;;;1.20;0.70;;;3.50;99.90;;;;;;5080029;28;20475;-49
2020/12/07 07:16:14;;;;;;;1.30;0.70;;;3.50;99.90;;;;;;5076420;28;20519;-51
2020/12/07 07:18:42;;;;;;;1.60;0.90;;;3.50;99.90;;;;;;5083393;28;20598;-49
2020/12/07 07:21:09;;;;;;;1.60;0.80;;;3.50;99.90;;;;;;5086758;28;20440;-49
2020/12/07 07:23:39;;;;;;;2.20;1.00;;;3.50;99.90;;;;;;5077924;28;20426;-51
2020/12/07 07:26:22;;;;;;;1.70;0.90;;;3.60;99.90;;;;;;5078160;28;20428;-54
2020/12/07 07:28:49;;;;;;;1.48;0.80;;;3.60;99.90;;;;;;5073778;28;20507;-53
2020/12/07 07:31:16;;;;;;;1.05;0.70;;;3.60;99.90;;;;;;5089894;28;20425;-50
2020/12/07 07:33:43;;;;;;;1.50;0.80;;;3.60;99.90;;;;;;5093826;28;20426;-51
2020/12/07 07:36:21;;;;;;;2.00;0.80;;;3.60;99.90;;;;;;5063812;28;20434;-53
2020/12/07 07:38:52;;;;;;;1.60;0.80;;;3.60;99.90;;;;;;5072831;28;20485;-51
2020/12/07 07:41:22;;;;;;;2.80;0.90;;;3.60;99.90;;;;;;5076393;28;20424;-53
2020/12/07 07:43:50;;;;;;;1.30;0.80;;;3.60;99.90;;;;;;5091820;28;20799;-51
2020/12/07 07:46:16;;;;;;;1.60;0.80;;;3.70;99.90;;;;;;5073982;28;20847;-53
2020/12/07 07:48:50;;;;;;;1.60;0.82;;;3.60;99.90;;;;;;5080988;28;20426;-53
2020/12/07 07:51:57;;;;;;;1.33;0.80;;;3.70;99.90;;;;;;5087379;28;20487;-53
2020/12/07 07:54:58;;;;;;;2.30;0.82;;;3.60;99.90;;;;;;5091916;28;20829;-53
2020/12/07 08:17:17;;;;;;;1.58;0.80;;;4.10;99.90;;;;;;5060001;28;20413;-59
2020/12/07 08:19:46;;;;;;;1.40;0.70;;;4.10;99.90;;;;;;5078420;28;20438;-59
2020/12/07 08:22:14;;;;;;;2.70;0.70;;;4.20;99.90;;;;;;5073435;28;20538;-59
2020/12/07 08:24:50;;;;;;;1.70;0.70;;;4.20;99.90;;;;;;5079075;28;20439;-59
2020/12/07 08:27:18;;;;;;;1.00;0.65;;;4.30;99.90;;;;;;5072681;28;20525;-59
2020/12/07 08:29:45;;;;;;;2.47;0.70;;;4.40;99.90;;;;;;5073108;28;20599;-59
2020/12/07 08:32:21;;;;;;;2.05;0.70;;;4.50;99.90;;;;;;5074171;28;20477;-59
2020/12/07 08:34:49;;;;;;;1.60;0.70;;;4.50;99.90;;;;;;5071592;28;20423;-59
2020/12/07 08:37:16;;;;;;;1.35;0.70;;;4.40;99.90;;;;;;5071820;28;20447;-59
2020/12/07 08:39:42;;;;;;;3.70;1.90;;;4.40;99.90;;;;;;5079447;28;20457;-60
2020/12/07 08:42:09;;;;;;;2.63;1.15;;;4.40;99.90;;;;;;5072116;28;20920;-57
2020/12/07 08:44:37;;;;;;;1.33;0.70;;;4.40;99.90;;;;;;5071801;28;20497;-58
2020/12/07 08:47:07;;;;;;;1.33;0.85;;;4.40;99.90;;;;;;5079577;28;20457;-57
2020/12/07 08:49:33;;;;;;;1.20;0.70;;;4.40;99.90;;;;;;5075456;28;20801;-57
2020/12/07 08:52:00;;;;;;;0.90;0.70;;;4.40;99.90;;;;;;5074676;28;20462;-57
2020/12/07 08:54:27;;;;;;;1.20;0.70;;;4.50;99.90;;;;;;5080438;28;20942;-58
2020/12/07 08:56:53;;;;;;;1.70;0.90;;;4.50;99.90;;;;;;5077307;28;20425;-58
2020/12/07 08:59:19;;;;;;;1.20;0.70;;;4.50;99.90;;;;;;5072042;28;20532;-57
2020/12/07 09:01:47;;;;;;;1.20;0.60;;;4.50;99.90;;;;;;5072062;28;20743;-58
2020/12/07 09:04:14;;;;;;;1.30;0.70;;;4.60;99.90;;;;;;5077101;28;20434;-57
2020/12/07 09:06:40;;;;;;;1.00;0.60;;;4.50;99.90;;;;;;5074005;28;20800;-59
2020/12/07 09:09:31;;;;;;;1.50;0.70;;;4.50;99.90;;;;;;5070133;28;20432;-59
2020/12/07 09:11:58;;;;;;;1.08;0.60;;;4.50;99.90;;;;;;5071811;28;20431;-50
2020/12/07 09:14:24;;;;;;;3.70;0.60;;;4.50;99.90;;;;;;5072552;28;20457;-50
2020/12/07 09:16:52;;;;;;;1.40;0.60;;;4.60;99.90;;;;;;5072316;28;20443;-52
2020/12/07 09:19:18;;;;;;;1.03;0.53;;;4.70;99.90;;;;;;5076141;28;20730;-51
2020/12/07 09:21:45;;;;;;;1.20;0.60;;;4.70;99.90;;;;;;5084632;28;20433;-47
2020/12/07 09:24:14;;;;;;;1.20;0.60;;;4.80;99.90;;;;;;5089092;28;20847;-53
2020/12/07 09:26:41;;;;;;;2.42;0.90;;;4.90;99.90;;;;;;5078104;28;20431;-50
2020/12/07 09:29:07;;;;;;;0.80;0.60;;;4.90;99.90;;;;;;5084624;28;20435;-51
2020/12/07 09:31:33;;;;;;;2.20;0.70;;;4.90;99.90;;;;;;5083028;28;20783;-52
2020/12/07 09:34:01;;;;;;;1.00;0.55;;;4.90;99.90;;;;;;5082292;28;20914;-51
2020/12/07 09:36:27;;;;;;;1.20;0.70;;;5.00;99.90;;;;;;5082342;28;20435;-51
2020/12/07 09:38:54;;;;;;;1.40;0.70;;;5.00;99.90;;;;;;5074726;28;20430;-50
2020/12/07 09:41:20;;;;;;;1.20;0.68;;;5.00;99.90;;;;;;5086362;28;20431;-52
2020/12/07 09:43:47;;;;;;;1.00;0.60;;;5.00;99.90;;;;;;5091470;28;20890;-54
2020/12/07 09:46:13;;;;;;;1.38;0.80;;;5.00;99.90;;;;;;5073603;28;20789;-52
2020/12/07 09:48:40;;;;;;;1.00;0.60;;;5.10;99.90;;;;;;5077809;28;20501;-53
2020/12/07 09:51:11;;;;;;;1.50;0.70;;;5.20;99.90;;;;;;5080119;28;20429;-50
2020/12/07 09:53:38;;;;;;;1.30;0.70;;;5.30;99.90;;;;;;5080223;28;20427;-51
2020/12/07 09:56:07;;;;;;;1.70;0.70;;;5.30;99.90;;;;;;5081116;28;20414;-52
2020/12/07 09:58:37;;;;;;;0.98;0.60;;;5.40;99.90;;;;;;5075737;28;20440;-52
2020/12/07 10:01:03;;;;;;;0.90;0.60;;;5.60;99.90;;;;;;5075476;28;20451;-55
2020/12/07 10:03:30;;;;;;;1.27;0.60;;;6.00;99.90;;;;;;5094990;28;20429;-56
2020/12/07 10:05:56;;;;;;;0.80;0.50;;;6.40;99.90;;;;;;5081597;28;20781;-59
2020/12/07 10:08:24;;;;;;;1.00;0.50;;;6.50;99.90;;;;;;5076209;28;20417;-56
2020/12/07 10:10:52;;;;;;;0.85;0.50;;;6.30;99.90;;;;;;5077427;28;20645;-53
2020/12/07 10:13:18;;;;;;;1.00;0.50;;;6.20;99.90;;;;;;5086447;28;20487;-55
2020/12/07 10:15:45;;;;;;;1.40;0.50;;;6.10;99.90;;;;;;5095964;28;20793;-54
2020/12/07 10:18:11;;;;;;;1.10;0.60;;;6.20;99.90;;;;;;5082749;28;20449;-56
2020/12/07 10:20:38;;;;;;;0.90;0.50;;;6.50;99.90;;;;;;5078999;28;20481;-55
2020/12/07 10:23:04;;;;;;;1.10;0.60;;;6.50;99.90;;;;;;5075422;28;20486;-56
2020/12/07 10:25:32;;;;;;;0.90;0.60;;;6.40;99.90;;;;;;5077856;28;20435;-54
2020/12/07 10:27:58;;;;;;;1.25;0.50;;;6.20;99.90;;;;;;5080999;28;20518;-55
2020/12/07 10:30:25;;;;;;;1.10;0.53;;;6.30;99.90;;;;;;5095616;28;21165;-56
2020/12/07 10:32:51;;;;;;;1.10;0.50;;;6.30;99.90;;;;;;5080512;28;20788;-55
2020/12/07 10:35:18;;;;;;;5.80;3.17;;;6.20;99.90;;;;;;5073969;28;20485;-54
2020/12/07 10:37:45;;;;;;;6.45;3.53;;;6.30;99.90;;;;;;5075043;28;20610;-56
2020/12/07 10:40:12;;;;;;;0.90;0.52;;;6.50;99.90;;;;;;5074502;28;20454;-52
2020/12/07 10:42:39;;;;;;;1.20;0.50;;;6.60;99.90;;;;;;5072333;28;20423;-56
2020/12/07 10:45:06;;;;;;;0.82;0.55;;;6.70;99.90;;;;;;5070687;28;20523;-56
2020/12/07 10:47:32;;;;;;;0.90;0.60;;;6.60;99.90;;;;;;5080834;28;20427;-53
2020/12/07 10:49:59;;;;;;;1.38;0.50;;;6.50;99.90;;;;;;5069676;28;20435;-55
2020/12/07 10:52:25;;;;;;;1.10;0.50;;;6.50;99.90;;;;;;5075555;28;20787;-54
2020/12/07 10:54:52;;;;;;;1.30;0.60;;;6.40;99.90;;;;;;5082561;28;20418;-55
2020/12/07 10:57:18;;;;;;;1.05;0.60;;;6.50;99.90;;;;;;5070677;28;20425;-56
2020/12/07 10:59:46;;;;;;;0.90;0.60;;;6.40;99.90;;;;;;5067181;28;20433;-57
2020/12/07 11:02:12;;;;;;;1.20;0.60;;;6.50;99.90;;;;;;5070339;28;20465;-56
2020/12/07 11:04:39;;;;;;;0.90;0.50;;;6.70;99.90;;;;;;5060410;28;20493;-57
2020/12/07 11:07:11;;;;;;;0.90;0.55;;;6.70;99.90;;;;;;5072473;28;20523;-57
2020/12/07 11:09:37;;;;;;;0.70;0.50;;;6.60;99.90;;;;;;5073517;28;20862;-57
2020/12/07 11:12:09;;;;;;;0.73;0.50;;;6.40;99.90;;;;;;5073127;28;20453;-57
2020/12/07 11:14:36;;;;;;;1.20;0.50;;;6.40;99.90;;;;;;5073608;28;20423;-55
2020/12/07 11:17:05;;;;;;;0.80;0.50;;;6.20;99.90;;;;;;5074868;28;20769;-56
2020/12/07 11:19:31;;;;;;;0.80;0.50;;;6.00;99.90;;;;;;5073485;28;20454;-53
2020/12/07 11:21:58;;;;;;;0.90;0.50;;;6.10;99.90;;;;;;5073790;28;20420;-55
2020/12/07 11:24:24;;;;;;;0.95;0.50;;;6.10;99.90;;;;;;5074281;28;20568;-55
2020/12/07 11:26:51;;;;;;;0.80;0.50;;;6.20;99.90;;;;;;5072623;28;20423;-56
2020/12/07 11:29:17;;;;;;;0.88;0.50;;;6.30;99.90;;;;;;5063517;28;20490;-53
2020/12/07 11:31:46;;;;;;;1.10;0.93;;;6.30;99.90;;;;;;5089587;28;20429;-54
2020/12/07 11:34:19;;;;;;;1.00;0.50;;;6.30;99.90;;;;;;5091291;28;20424;-54
2020/12/07 11:36:46;;;;;;;0.70;0.47;;;6.30;99.90;;;;;;5091640;28;20845;-54
2020/12/07 11:39:23;;;;;;;0.70;0.50;;;6.20;99.90;;;;;;5091927;28;20737;-55
2020/12/07 11:42:05;;;;;;;0.98;0.50;;;6.10;99.90;;;;;;5081028;28;21069;-56
2020/12/07 11:44:32;;;;;;;0.82;0.50;;;6.10;99.90;;;;;;5072095;28;20534;-55
2020/12/07 11:47:00;;;;;;;1.00;0.50;;;6.00;99.90;;;;;;5072418;28;20424;-56
2020/12/07 11:49:28;;;;;;;0.90;0.50;;;6.00;99.90;;;;;;5072524;28;20435;-52
2020/12/07 11:51:54;;;;;;;0.70;0.50;;;6.00;99.90;;;;;;5070360;28;20497;-57
2020/12/07 11:54:21;;;;;;;0.98;0.50;;;6.00;99.90;;;;;;5071996;28;20467;-57
2020/12/07 11:56:47;;;;;;;0.80;0.50;;;6.00;99.90;;;;;;5071641;28;20481;-58
2020/12/07 11:59:15;;;;;;;1.10;0.60;;;6.00;99.90;;;;;;5067529;28;20435;-58
2020/12/07 12:01:41;;;;;;;0.68;0.40;;;6.20;99.90;;;;;;5066252;28;20459;-57
2020/12/07 12:04:08;;;;;;;0.80;0.50;;;6.10;99.90;;;;;;5072067;28;20595;-58
2020/12/07 12:06:37;;;;;;;1.00;0.50;;;6.10;99.90;;;;;;5082375;28;20437;-56
2020/12/07 12:09:05;;;;;;;0.93;0.50;;;6.00;99.90;;;;;;5086928;28;20452;-57
2020/12/07 12:11:33;;;;;;;0.70;0.50;;;6.00;99.90;;;;;;5073948;28;20501;-56
2020/12/07 12:14:01;;;;;;;0.80;0.50;;;6.00;99.90;;;;;;5064287;28;20431;-57
2020/12/07 12:16:28;;;;;;;0.80;0.50;;;6.00;99.90;;;;;;5070607;28;20427;-56
2020/12/07 12:18:54;;;;;;;0.80;0.40;;;5.90;99.90;;;;;;5070210;28;20462;-57
2020/12/07 12:21:22;;;;;;;0.82;0.50;;;5.80;99.90;;;;;;5071058;28;20729;-56
2020/12/07 12:23:50;;;;;;;0.70;0.40;;;5.60;99.90;;;;;;5072986;28;20909;-56
2020/12/07 12:26:17;;;;;;;0.80;0.50;;;5.50;99.90;;;;;;5070978;28;20431;-55
2020/12/07 12:28:44;;;;;;;1.10;0.50;;;5.40;99.90;;;;;;5071206;28;20427;-55
2020/12/07 12:31:11;;;;;;;0.82;0.50;;;5.40;99.90;;;;;;5069924;28;20766;-55
2020/12/07 12:33:38;;;;;;;1.60;0.50;;;5.40;99.90;;;;;;5071688;28;20416;-55
2020/12/07 12:36:05;;;;;;;0.80;0.47;;;5.40;99.90;;;;;;5070795;28;20856;-56
2020/12/07 12:38:31;;;;;;;1.27;0.60;;;5.40;99.90;;;;;;5069826;28;20427;-56
2020/12/07 12:41:00;;;;;;;0.82;0.60;;;5.30;99.90;;;;;;5069631;28;22128;-56
2020/12/07 12:43:27;;;;;;;0.90;0.60;;;5.20;99.90;;;;;;5070630;28;20688;-54
2020/12/07 12:45:53;;;;;;;0.80;0.50;;;5.20;99.90;;;;;;5072035;28;20461;-56
2020/12/07 12:48:19;;;;;;;0.80;0.47;;;5.20;99.90;;;;;;5070645;28;20595;-55
2020/12/07 12:50:46;;;;;;;0.90;0.60;;;5.30;99.90;;;;;;5071374;28;20471;-56
2020/12/07 12:53:12;;;;;;;0.70;0.50;;;5.30;99.90;;;;;;5073142;28;20478;-57
2020/12/07 12:55:39;;;;;;;0.70;0.40;;;5.30;99.90;;;;;;5070796;28;20486;-55
2020/12/07 12:58:06;;;;;;;0.80;0.60;;;5.30;99.90;;;;;;5066065;28;20468;-56
2020/12/07 13:00:33;;;;;;;1.30;0.50;;;5.40;99.90;;;;;;5069392;28;20774;-56
2020/12/07 13:02:59;;;;;;;0.90;0.50;;;5.40;99.90;;;;;;5069692;28;20438;-57
2020/12/07 13:05:26;;;;;;;1.30;0.68;;;5.40;99.90;;;;;;5067367;28;20525;-53
2020/12/07 13:07:53;;;;;;;0.95;0.63;;;5.40;99.90;;;;;;5071524;28;20423;-53
2020/12/07 13:10:19;;;;;;;0.93;0.50;;;5.40;99.90;;;;;;5080014;28;20457;-60
2020/12/07 13:12:46;;;;;;;0.80;0.50;;;5.40;99.90;;;;;;5089211;28;20622;-60
2020/12/07 13:15:14;;;;;;;1.00;0.60;;;5.30;99.90;;;;;;5084084;28;20431;-60
2020/12/07 13:17:48;;;;;;;1.00;0.60;;;5.30;99.90;;;;;;5066746;28;20420;-60
2020/12/07 13:20:15;;;;;;;1.83;0.60;;;5.20;99.90;;;;;;5078068;28;20434;-60